DEN weather

Public forecast

Using degrees Fahrenheit for public forecast. Weather courtesy of forecast.io.

Current aviation weather report (METAR) for Denver International Airport

Retrieved 2020/08/10 17:53 UTC (16 minutes ago):

KDEN 101753Z 00000KT 10SM FEW090 FEW160 FEW220 25/11 A3018 RMK AO2 SLP138 T02500111 10250 20156 58002

Aviation forecast (TAF) for Denver International Airport

Retrieved 2020/08/10 18:36 UTC (0 seconds ago):

TAF KDEN 101734Z 1018/1124 07008KT P6SM FEW140 FM102000 10012KT P6SM SCT140 FM102300 14012KT P6SM SCT090 BKN140 FM110500 22012KT P6SM FEW090 SCT140 FM111500 28006KT P6SM FEW090 SCT140 FM111900 26013G20KT P6SM SCT090 SCT140